Time;durP1;ratioP1;P1;durP2;ratioP2;P2;SDS_P1;SDS_P2;PMS_P1;PMS_P2;Temp;Humidity;BMP_temperature;BMP_pressure;BME280_temperature;BME280_humidity;BME280_pressure;Samples;Min_cycle;Max_cycle;Signal;HPM_P1;HPM_P2
2023/01/21 00:02:22;;;;;;;9.97;6.93;;;6.10;1.00;;;;;;5073338;28;20029;-51
2023/01/21 00:04:48;;;;;;;9.13;6.00;;;6.10;1.00;;;;;;5074692;28;20040;-54
2023/01/21 00:07:13;;;;;;;12.20;6.53;;;6.20;1.00;;;;;;5073722;28;20065;-54
2023/01/21 00:09:39;;;;;;;12.33;6.37;;;6.10;1.00;;;;;;5074784;28;20021;-50
2023/01/21 00:12:05;;;;;;;9.03;5.57;;;6.20;1.00;;;;;;5073775;28;20111;-51
2023/01/21 00:14:30;;;;;;;10.93;6.47;;;6.20;1.00;;;;;;5073479;28;20036;-51
2023/01/21 00:16:57;;;;;;;9.30;5.60;;;6.10;1.00;;;;;;5074777;28;20024;-52
2023/01/21 00:19:24;;;;;;;8.03;5.77;;;6.20;1.00;;;;;;5074888;28;20021;-55
2023/01/21 00:21:50;;;;;;;6.53;5.70;;;6.10;1.00;;;;;;5072515;28;20059;-51
2023/01/21 00:24:16;;;;;;;9.27;5.63;;;6.10;1.00;;;;;;5073458;28;20029;-54
2023/01/21 00:26:41;;;;;;;8.57;5.50;;;6.10;1.00;;;;;;5074410;28;20027;-49
2023/01/21 00:29:08;;;;;;;6.80;4.90;;;6.10;1.00;;;;;;5074933;28;20024;-51
2023/01/21 00:31:34;;;;;;;8.80;4.87;;;6.10;1.00;;;;;;5074696;28;20032;-51
2023/01/21 00:34:00;;;;;;;7.80;5.10;;;6.00;1.00;;;;;;5073283;28;20033;-54
2023/01/21 00:36:28;;;;;;;7.03;4.73;;;6.10;1.00;;;;;;5074450;28;20021;-50
2023/01/21 00:38:58;;;;;;;7.63;4.10;;;6.10;1.00;;;;;;5073381;28;20025;-52
2023/01/21 00:41:25;;;;;;;7.27;4.63;;;6.10;1.00;;;;;;5074320;28;20111;-54
2023/01/21 00:43:50;;;;;;;6.67;4.73;;;6.10;1.00;;;;;;5074227;28;20032;-51
2023/01/21 00:46:16;;;;;;;5.93;4.30;;;6.10;1.00;;;;;;5074301;28;20432;-54
2023/01/21 00:48:42;;;;;;;7.50;4.37;;;6.10;1.00;;;;;;5074136;28;20098;-53
2023/01/21 00:51:08;;;;;;;5.40;3.50;;;6.10;1.00;;;;;;5074717;28;20063;-50
2023/01/21 00:53:36;;;;;;;5.63;3.23;;;6.10;1.00;;;;;;5073881;28;20025;-49
2023/01/21 00:56:05;;;;;;;5.10;3.07;;;6.10;1.00;;;;;;5072698;28;20469;-49
2023/01/21 00:58:31;;;;;;;5.10;3.03;;;6.00;1.00;;;;;;5073166;28;20035;-52
2023/01/21 01:01:01;;;;;;;5.70;3.47;;;6.00;1.00;;;;;;5073491;28;20028;-49
2023/01/21 01:03:27;;;;;;;5.23;2.63;;;6.00;1.00;;;;;;5073960;28;20035;-50
2023/01/21 01:05:53;;;;;;;4.70;2.60;;;5.90;1.00;;;;;;5073460;28;20056;-49
2023/01/21 01:08:18;;;;;;;5.30;2.40;;;5.80;1.00;;;;;;5073687;28;20162;-49
2023/01/21 01:10:44;;;;;;;3.83;2.60;;;5.90;1.00;;;;;;5072441;28;20040;-50
2023/01/21 01:13:09;;;;;;;4.60;2.90;;;5.90;1.00;;;;;;5073571;28;20023;-53
2023/01/21 01:15:35;;;;;;;3.83;2.77;;;6.00;1.00;;;;;;5059386;28;20049;-54
2023/01/21 01:18:00;;;;;;;3.63;2.40;;;6.00;1.00;;;;;;5072045;28;20481;-53
2023/01/21 01:20:26;;;;;;;4.60;2.90;;;6.00;1.00;;;;;;5073402;28;20055;-50
2023/01/21 01:22:51;;;;;;;3.63;2.17;;;6.00;1.00;;;;;;5073388;28;20024;-54
2023/01/21 01:25:17;;;;;;;4.00;2.10;;;6.00;1.00;;;;;;5073382;28;20371;-49
2023/01/21 01:27:43;;;;;;;3.77;2.10;;;5.90;1.00;;;;;;5071802;28;20028;-51
2023/01/21 01:30:09;;;;;;;4.07;2.20;;;5.90;1.00;;;;;;5080532;28;20389;-49
2023/01/21 01:32:34;;;;;;;2.83;2.03;;;6.00;1.00;;;;;;5072367;28;20028;-51
2023/01/21 01:35:00;;;;;;;4.57;2.27;;;6.00;1.00;;;;;;5064891;28;20062;-49
2023/01/21 01:37:26;;;;;;;6.53;1.93;;;5.90;1.00;;;;;;5072738;28;20385;-50
2023/01/21 01:39:51;;;;;;;3.83;2.10;;;5.90;1.00;;;;;;5073284;28;20028;-49
2023/01/21 01:42:17;;;;;;;4.27;2.23;;;5.90;1.00;;;;;;5071587;28;20028;-49
2023/01/21 01:44:56;;;;;;;2.03;1.70;;;5.90;1.00;;;;;;5071517;28;20040;-58
2023/01/21 01:47:27;;;;;;;2.27;1.83;;;6.00;1.00;;;;;;5072835;28;20028;-50
2023/01/21 01:49:53;;;;;;;3.03;1.90;;;6.00;1.00;;;;;;5071435;28;20123;-50
2023/01/21 01:52:20;;;;;;;3.07;1.60;;;5.90;1.00;;;;;;5071777;28;20078;-49
2023/01/21 01:54:52;;;;;;;2.57;1.80;;;5.90;1.00;;;;;;5072628;28;20099;-50
2023/01/21 01:57:21;;;;;;;3.17;1.70;;;5.80;1.00;;;;;;5072745;28;20489;-50
2023/01/21 01:59:48;;;;;;;2.20;1.50;;;5.80;1.00;;;;;;5071275;28;20046;-49
2023/01/21 02:02:17;;;;;;;3.20;1.30;;;5.90;1.00;;;;;;5072894;28;20029;-50
2023/01/21 02:04:59;;;;;;;1.63;1.23;;;5.90;1.00;;;;;;5070690;28;20087;-53
2023/01/21 02:07:29;;;;;;;2.00;1.43;;;5.80;1.00;;;;;;5072600;28;20020;-49
2023/01/21 02:09:55;;;;;;;2.87;1.40;;;5.90;1.00;;;;;;5072325;28;20047;-50
2023/01/21 02:12:21;;;;;;;2.07;1.23;;;5.80;1.00;;;;;;5072440;28;20032;-49
2023/01/21 02:14:47;;;;;;;2.27;1.17;;;5.90;1.00;;;;;;5072502;28;20021;-49
2023/01/21 02:17:35;;;;;;;2.60;1.27;;;5.90;1.00;;;;;;5072680;28;20020;-49
2023/01/21 02:20:06;;;;;;;1.43;1.30;;;5.80;1.00;;;;;;5072309;28;20067;-50
2023/01/21 02:22:37;;;;;;;2.37;1.27;;;5.90;1.00;;;;;;5072556;28;20031;-49
2023/01/21 02:25:06;;;;;;;3.03;1.50;;;5.80;1.00;;;;;;5070648;28;20086;-49
2023/01/21 02:27:59;;;;;;;1.83;1.23;;;5.80;1.00;;;;;;5071253;28;20028;-49
2023/01/21 02:30:39;;;;;;;4.53;1.00;;;5.80;1.00;;;;;;5071463;28;20047;-53
2023/01/21 02:33:25;;;;;;;1.60;1.07;;;5.70;1.00;;;;;;5070813;28;20086;-49
2023/01/21 02:36:11;;;;;;;1.33;1.10;;;5.70;1.00;;;;;;5071435;28;20043;-50
2023/01/21 02:39:16;;;;;;;1.97;1.13;;;5.70;1.00;;;;;;5072092;28;20085;-49
2023/01/21 02:41:56;;;;;;;1.87;1.07;;;5.70;1.00;;;;;;5071838;28;20043;-50
2023/01/21 02:44:40;;;;;;;3.67;1.17;;;5.70;1.00;;;;;;5072149;28;20032;-53
2023/01/21 02:47:33;;;;;;;1.67;1.17;;;5.80;1.00;;;;;;5059997;28;20021;-52
2023/01/21 02:50:05;;;;;;;1.43;0.93;;;5.60;1.00;;;;;;5070687;28;20032;-53
2023/01/21 02:52:31;;;;;;;1.93;1.00;;;5.70;1.00;;;;;;5072272;28;20162;-48
2023/01/21 02:54:59;;;;;;;2.13;1.00;;;5.70;1.00;;;;;;5071905;28;20024;-49
2023/01/21 02:57:40;;;;;;;1.47;0.93;;;5.70;1.00;;;;;;5071855;28;20013;-49
2023/01/21 03:00:12;;;;;;;1.20;0.70;;;5.70;1.00;;;;;;5071939;28;20032;-49
2023/01/21 03:02:53;;;;;;;2.10;1.00;;;5.70;1.00;;;;;;5071843;28;20021;-53
2023/01/21 03:05:30;;;;;;;1.63;1.10;;;5.70;1.00;;;;;;5071608;28;20131;-48
2023/01/21 03:08:22;;;;;;;1.00;0.67;;;5.70;1.00;;;;;;5071827;28;20021;-49
2023/01/21 03:11:12;;;;;;;2.83;0.87;;;5.70;1.00;;;;;;5050556;28;20107;-50
2023/01/21 03:16:56;;;;;;;1.83;1.00;;;5.70;1.00;;;;;;5071878;28;20086;-50
2023/01/21 03:19:41;;;;;;;1.80;1.00;;;5.70;1.00;;;;;;5071963;28;20032;-50
2023/01/21 03:22:13;;;;;;;1.00;0.80;;;5.70;1.00;;;;;;5071994;28;20381;-50
2023/01/21 03:24:42;;;;;;;0.70;0.63;;;5.60;1.00;;;;;;5071572;28;20322;-51
2023/01/21 03:27:10;;;;;;;4.73;1.30;;;5.60;1.00;;;;;;5071731;28;20021;-54
2023/01/21 03:29:41;;;;;;;2.07;0.80;;;5.60;1.00;;;;;;5071599;28;20039;-52
2023/01/21 03:32:11;;;;;;;1.83;0.70;;;5.50;1.00;;;;;;5071490;28;20122;-50
2023/01/21 03:34:41;;;;;;;1.20;0.70;;;5.60;1.00;;;;;;5071714;28;20020;-50
2023/01/21 03:37:18;;;;;;;2.00;0.73;;;5.60;1.00;;;;;;5073009;28;20024;-52
2023/01/21 03:39:47;;;;;;;1.30;0.77;;;5.60;1.00;;;;;;5075414;28;20020;-50
2023/01/21 03:42:13;;;;;;;2.17;1.00;;;5.60;1.00;;;;;;5074129;28;20052;-52
2023/01/21 03:44:39;;;;;;;1.50;0.87;;;5.60;1.00;;;;;;5073890;28;20052;-49
2023/01/21 03:50:35;;;;;;;1.07;0.70;;;5.60;1.00;;;;;;5059852;28;20048;-53
2023/01/21 03:53:01;;;;;;;2.20;0.60;;;5.60;1.00;;;;;;5073965;28;20085;-49
2023/01/21 03:55:27;;;;;;;1.83;0.70;;;5.50;1.00;;;;;;5075115;28;20465;-51
2023/01/21 03:57:52;;;;;;;1.77;0.50;;;5.50;1.00;;;;;;5074930;28;20052;-50
2023/01/21 04:00:18;;;;;;;2.50;0.80;;;5.50;1.00;;;;;;5075212;28;20021;-51
2023/01/21 04:02:44;;;;;;;0.73;0.70;;;5.60;1.00;;;;;;5075203;28;20070;-50
2023/01/21 04:05:09;;;;;;;1.50;0.87;;;5.60;1.00;;;;;;5074550;28;20064;-53
2023/01/21 04:07:35;;;;;;;1.30;1.17;;;5.50;1.00;;;;;;5075095;28;20024;-51
2023/01/21 04:10:01;;;;;;;2.40;1.00;;;5.50;1.00;;;;;;5074658;28;20028;-52
2023/01/21 04:12:26;;;;;;;2.33;0.87;;;5.50;1.00;;;;;;5074892;28;20119;-51
2023/01/21 04:14:52;;;;;;;2.37;0.90;;;5.40;1.00;;;;;;5074594;28;20579;-52
2023/01/21 04:17:17;;;;;;;2.07;0.93;;;5.50;1.00;;;;;;5074678;28;20019;-50
2023/01/21 04:19:43;;;;;;;1.17;0.77;;;5.50;1.00;;;;;;5074425;28;20042;-50
2023/01/21 04:22:09;;;;;;;2.50;1.00;;;5.50;1.00;;;;;;5075216;28;20021;-50
2023/01/21 04:24:34;;;;;;;0.97;0.80;;;5.50;1.00;;;;;;5074795;28;20464;-53
2023/01/21 04:27:00;;;;;;;0.47;0.40;;;5.40;1.00;;;;;;5074393;28;20086;-51
2023/01/21 04:29:25;;;;;;;1.53;0.70;;;5.50;1.00;;;;;;5075390;28;20024;-51
2023/01/21 04:31:51;;;;;;;2.17;1.17;;;5.50;1.00;;;;;;5073059;28;20462;-51
2023/01/21 04:34:17;;;;;;;0.93;0.73;;;5.50;1.00;;;;;;5074704;28;20016;-52
2023/01/21 04:36:42;;;;;;;0.87;0.77;;;5.50;1.00;;;;;;5074499;28;20387;-54
2023/01/21 04:39:10;;;;;;;1.47;0.63;;;5.50;1.00;;;;;;5072859;28;20024;-49
2023/01/21 04:41:35;;;;;;;1.50;0.60;;;5.50;1.00;;;;;;5074379;28;20588;-51
2023/01/21 04:44:01;;;;;;;1.97;1.10;;;5.40;1.00;;;;;;5074557;28;20036;-51
2023/01/21 04:46:26;;;;;;;1.17;0.90;;;5.50;1.00;;;;;;5074146;28;20438;-54
2023/01/21 04:48:52;;;;;;;2.03;0.70;;;5.50;1.00;;;;;;5073867;28;20096;-53
2023/01/21 04:51:18;;;;;;;1.90;1.00;;;5.40;1.00;;;;;;5074542;28;20063;-51
2023/01/21 04:53:43;;;;;;;1.20;0.53;;;5.40;1.00;;;;;;5074137;28;20029;-50
2023/01/21 04:56:09;;;;;;;1.33;0.50;;;5.50;1.00;;;;;;5073996;28;20023;-50
2023/01/21 04:58:35;;;;;;;1.03;0.50;;;5.40;1.00;;;;;;5074029;28;20029;-52
2023/01/21 05:01:00;;;;;;;2.10;1.03;;;5.40;1.00;;;;;;5073893;28;20060;-50
2023/01/21 05:03:26;;;;;;;1.53;0.90;;;5.50;1.00;;;;;;5073721;28;20114;-52
2023/01/21 05:05:52;;;;;;;1.03;0.80;;;5.40;1.00;;;;;;5073567;28;20489;-55
2023/01/21 05:08:18;;;;;;;1.43;0.70;;;5.40;1.00;;;;;;5072583;28;20034;-54
2023/01/21 05:10:43;;;;;;;1.17;0.80;;;5.40;1.00;;;;;;5073725;28;20428;-52
2023/01/21 05:13:09;;;;;;;0.83;0.73;;;5.40;1.00;;;;;;5072826;28;20020;-53
2023/01/21 05:15:34;;;;;;;1.33;0.70;;;5.40;1.00;;;;;;5073694;28;20470;-55
2023/01/21 05:18:00;;;;;;;1.40;0.83;;;5.40;1.00;;;;;;5072530;28;20035;-54
2023/01/21 05:20:26;;;;;;;2.03;1.13;;;5.40;1.00;;;;;;5072172;28;20055;-55
2023/01/21 05:22:51;;;;;;;2.97;1.13;;;5.40;1.00;;;;;;5073594;28;20032;-53
2023/01/21 05:25:17;;;;;;;2.20;1.10;;;5.40;1.00;;;;;;5073570;28;20047;-52
2023/01/21 05:27:43;;;;;;;1.03;0.60;;;5.40;1.00;;;;;;5071949;28;20032;-51
2023/01/21 05:30:09;;;;;;;1.40;0.93;;;5.40;1.00;;;;;;5073100;28;20155;-54
2023/01/21 05:32:37;;;;;;;2.60;0.90;;;5.40;1.00;;;;;;5073441;28;20028;-52
2023/01/21 05:35:04;;;;;;;2.73;1.00;;;5.40;1.00;;;;;;5073471;28;20021;-51
2023/01/21 05:37:29;;;;;;;1.80;0.70;;;5.40;1.00;;;;;;5072958;28;20027;-53
2023/01/21 05:39:55;;;;;;;2.73;0.97;;;5.40;1.00;;;;;;5071796;28;20412;-51
2023/01/21 05:42:20;;;;;;;0.63;0.40;;;5.40;1.00;;;;;;5071812;28;20028;-52
2023/01/21 05:44:46;;;;;;;1.37;0.77;;;5.30;1.00;;;;;;5072939;28;20150;-56
2023/01/21 05:47:12;;;;;;;2.30;0.93;;;5.40;1.00;;;;;;5073497;28;20059;-53
2023/01/21 05:49:37;;;;;;;2.60;0.87;;;5.40;1.00;;;;;;5072898;28;20249;-52
2023/01/21 05:52:03;;;;;;;1.90;0.77;;;5.40;1.00;;;;;;5073198;28;20442;-51
2023/01/21 05:54:30;;;;;;;2.43;0.87;;;5.40;1.00;;;;;;5072781;28;20481;-53
2023/01/21 05:56:55;;;;;;;1.47;0.97;;;5.40;1.00;;;;;;5073260;28;20355;-52
2023/01/21 05:59:21;;;;;;;1.17;0.90;;;5.30;1.00;;;;;;5072337;28;20036;-52
2023/01/21 06:01:49;;;;;;;1.70;0.77;;;5.40;1.00;;;;;;5072661;28;20027;-51
2023/01/21 06:04:15;;;;;;;2.30;0.77;;;5.40;1.00;;;;;;5072766;28;20059;-53
2023/01/21 06:06:40;;;;;;;2.60;0.87;;;5.30;1.00;;;;;;5071633;28;20032;-52
2023/01/21 06:09:06;;;;;;;0.80;0.80;;;5.30;1.00;;;;;;5072648;28;20068;-54
2023/01/21 06:11:32;;;;;;;2.00;0.80;;;5.30;1.00;;;;;;5072425;28;20083;-54
2023/01/21 06:13:57;;;;;;;1.07;0.97;;;5.30;1.00;;;;;;5072636;28;20058;-53
2023/01/21 06:16:23;;;;;;;4.53;0.93;;;5.40;1.00;;;;;;5072711;28;20094;-55
2023/01/21 06:18:48;;;;;;;3.53;1.10;;;5.30;1.00;;;;;;5072359;28;20021;-51
2023/01/21 06:21:14;;;;;;;1.70;0.83;;;5.40;1.00;;;;;;5072482;28;20023;-51
2023/01/21 06:23:39;;;;;;;3.17;0.80;;;5.30;1.00;;;;;;5072211;28;20355;-52
2023/01/21 06:26:05;;;;;;;3.90;1.00;;;5.30;1.00;;;;;;5072576;28;20075;-55
2023/01/21 06:28:31;;;;;;;2.23;0.70;;;5.30;1.00;;;;;;5072358;28;20028;-52
2023/01/21 06:30:56;;;;;;;1.80;1.10;;;5.30;1.00;;;;;;5072064;28;20020;-54
2023/01/21 06:33:22;;;;;;;1.57;0.80;;;5.30;1.00;;;;;;5072446;28;20468;-52
2023/01/21 06:35:47;;;;;;;1.80;0.87;;;5.40;1.00;;;;;;5072175;28;20028;-55
2023/01/21 06:38:13;;;;;;;1.97;1.10;;;5.30;1.00;;;;;;5072013;28;20012;-51
2023/01/21 06:40:39;;;;;;;3.10;1.00;;;5.30;1.00;;;;;;5072239;28;20450;-54
2023/01/21 06:43:05;;;;;;;4.23;1.20;;;5.30;1.00;;;;;;5072094;28;20075;-51
2023/01/21 06:45:30;;;;;;;1.20;0.90;;;5.30;1.00;;;;;;5071972;28;20048;-51
2023/01/21 06:47:56;;;;;;;2.03;1.30;;;5.30;1.00;;;;;;5070672;28;20107;-55
2023/01/21 06:50:22;;;;;;;2.53;1.27;;;5.30;1.00;;;;;;5072241;28;20039;-55
2023/01/21 06:52:48;;;;;;;1.13;0.90;;;5.30;1.00;;;;;;5072141;28;20027;-51
2023/01/21 06:55:15;;;;;;;3.30;1.00;;;5.30;1.00;;;;;;5071657;28;20063;-51
2023/01/21 06:57:42;;;;;;;3.33;1.40;;;5.30;1.00;;;;;;5072128;28;20128;-52
2023/01/21 07:00:09;;;;;;;1.50;1.07;;;5.30;1.00;;;;;;5071829;28;20028;-51
2023/01/21 07:02:35;;;;;;;4.40;1.20;;;5.40;1.00;;;;;;5071759;28;20115;-53
2023/01/21 07:05:01;;;;;;;3.63;1.00;;;5.30;1.00;;;;;;5071836;28;20055;-54
2023/01/21 07:07:27;;;;;;;2.53;1.27;;;5.30;1.00;;;;;;5072021;28;20055;-52
2023/01/21 07:09:52;;;;;;;2.83;1.07;;;5.30;1.00;;;;;;5071947;28;20028;-53
2023/01/21 07:12:18;;;;;;;2.30;1.03;;;5.40;1.00;;;;;;5075272;28;20061;-54
2023/01/21 07:14:44;;;;;;;2.60;1.17;;;5.30;1.00;;;;;;5076094;28;20020;-52
2023/01/21 07:17:09;;;;;;;1.47;1.17;;;5.40;1.00;;;;;;5075946;28;20463;-53
2023/01/21 07:19:35;;;;;;;4.17;1.00;;;5.40;1.00;;;;;;5075989;28;20083;-53
2023/01/21 07:22:01;;;;;;;1.43;0.77;;;5.40;1.00;;;;;;5075906;28;20462;-51
2023/01/21 07:24:26;;;;;;;2.27;1.27;;;5.40;1.00;;;;;;5075945;28;20108;-51
2023/01/21 07:26:52;;;;;;;2.97;1.30;;;5.40;1.00;;;;;;5075494;28;20377;-53
2023/01/21 07:29:18;;;;;;;1.33;1.03;;;5.40;1.00;;;;;;5075579;28;20017;-55
2023/01/21 07:31:44;;;;;;;3.27;0.87;;;5.40;1.00;;;;;;5075705;28;20408;-54
2023/01/21 07:34:09;;;;;;;2.47;1.43;;;5.50;1.00;;;;;;5075435;28;20513;-55
2023/01/21 07:36:35;;;;;;;4.37;1.30;;;5.50;1.00;;;;;;5075719;28;20021;-55
2023/01/21 07:39:00;;;;;;;2.83;1.20;;;5.50;1.00;;;;;;5075276;28;20029;-56
2023/01/21 07:41:26;;;;;;;4.67;1.67;;;5.50;1.00;;;;;;5075339;28;20446;-55
2023/01/21 07:43:52;;;;;;;5.27;1.40;;;5.50;1.00;;;;;;5075991;28;20032;-54
2023/01/21 07:46:19;;;;;;;2.53;1.47;;;5.50;1.00;;;;;;5075418;28;20046;-55
2023/01/21 07:48:50;;;;;;;4.10;1.43;;;5.50;1.00;;;;;;5075517;28;20051;-55
2023/01/21 07:51:16;;;;;;;3.53;1.33;;;5.50;1.00;;;;;;5075112;28;20545;-55
2023/01/21 07:53:42;;;;;;;5.07;1.73;;;5.50;1.00;;;;;;5075477;28;20462;-55
2023/01/21 07:56:09;;;;;;;3.37;1.57;;;5.50;1.00;;;;;;5074904;28;20025;-56
2023/01/21 07:58:38;;;;;;;1.97;1.20;;;5.50;1.00;;;;;;5075052;28;20028;-53
2023/01/21 08:01:07;;;;;;;3.37;1.93;;;5.60;1.00;;;;;;5074056;28;20422;-56
2023/01/21 08:03:34;;;;;;;6.87;1.83;;;5.50;1.00;;;;;;5073855;28;20047;-55
2023/01/21 08:06:00;;;;;;;4.47;2.10;;;5.50;1.00;;;;;;5073127;28;20045;-55
2023/01/21 08:08:25;;;;;;;4.37;1.73;;;5.60;1.00;;;;;;5074778;28;20016;-53
2023/01/21 08:10:52;;;;;;;2.10;1.80;;;5.60;1.00;;;;;;5074717;28;20100;-51
2023/01/21 08:13:18;;;;;;;3.87;1.87;;;5.70;1.00;;;;;;5074636;28;20048;-51
2023/01/21 08:15:44;;;;;;;3.10;2.23;;;5.70;1.00;;;;;;5074874;28;20054;-54
2023/01/21 08:18:09;;;;;;;4.87;1.70;;;5.60;1.00;;;;;;5074894;28;20017;-55
2023/01/21 08:20:35;;;;;;;3.10;1.87;;;5.60;1.00;;;;;;5074581;28;20062;-52
2023/01/21 08:23:00;;;;;;;7.10;2.30;;;5.70;1.00;;;;;;5073872;28;20105;-53
2023/01/21 08:25:26;;;;;;;5.47;2.83;;;5.80;1.00;;;;;;5074590;28;20031;-51
2023/01/21 08:27:51;;;;;;;4.47;2.57;;;5.70;1.00;;;;;;5075332;28;20115;-54
2023/01/21 08:30:17;;;;;;;7.37;3.03;;;5.70;1.00;;;;;;5073841;28;20515;-52
2023/01/21 08:32:44;;;;;;;3.13;1.97;;;5.80;1.00;;;;;;5074638;28;20028;-53
2023/01/21 08:35:10;;;;;;;5.83;2.23;;;5.90;1.00;;;;;;5073182;28;20035;-52
2023/01/21 08:37:35;;;;;;;8.60;2.50;;;5.80;1.00;;;;;;5074010;28;20369;-55
2023/01/21 08:40:01;;;;;;;4.30;1.90;;;5.90;1.00;;;;;;5074344;28;20032;-55
2023/01/21 08:42:28;;;;;;;5.97;2.53;;;6.00;1.00;;;;;;5074086;28;20055;-53
2023/01/21 08:44:53;;;;;;;4.20;2.17;;;6.10;1.00;;;;;;5074156;28;20462;-52
2023/01/21 08:47:19;;;;;;;3.30;2.17;;;6.10;1.00;;;;;;5074143;28;20029;-52
2023/01/21 08:49:44;;;;;;;8.30;2.60;;;6.10;1.00;;;;;;5074206;28;20531;-51
2023/01/21 08:52:10;;;;;;;4.77;2.27;;;6.20;1.00;;;;;;5071292;28;20021;-49
2023/01/21 08:54:35;;;;;;;5.53;2.40;;;6.30;1.00;;;;;;5065227;28;20024;-54
2023/01/21 08:57:01;;;;;;;7.47;2.70;;;6.20;1.00;;;;;;5074001;28;20024;-50
2023/01/21 08:59:28;;;;;;;5.67;2.87;;;6.30;1.00;;;;;;5073730;28;20019;-51
2023/01/21 09:01:55;;;;;;;4.77;2.60;;;6.40;1.00;;;;;;5073728;28;20033;-53
2023/01/21 09:04:21;;;;;;;10.27;2.50;;;6.50;1.00;;;;;;5073488;28;20044;-52
2023/01/21 09:06:46;;;;;;;7.60;2.37;;;6.50;1.00;;;;;;5073746;28;20493;-54
2023/01/21 09:09:12;;;;;;;6.57;2.27;;;6.50;1.00;;;;;;5073624;28;20024;-55
2023/01/21 09:11:38;;;;;;;5.60;2.83;;;6.50;1.00;;;;;;5073749;28;20032;-50
2023/01/21 09:14:03;;;;;;;5.20;3.03;;;6.50;1.00;;;;;;5073617;28;20021;-51
2023/01/21 09:16:32;;;;;;;7.57;3.30;;;6.50;1.00;;;;;;5073592;28;20036;-55
2023/01/21 09:19:01;;;;;;;4.40;2.20;;;6.60;1.00;;;;;;5073621;28;20029;-54
2023/01/21 09:21:28;;;;;;;7.13;3.10;;;6.60;1.00;;;;;;5072111;28;20127;-54
2023/01/21 09:23:54;;;;;;;5.57;2.13;;;6.60;1.00;;;;;;5073480;28;20103;-56
2023/01/21 09:26:23;;;;;;;4.57;2.33;;;6.70;1.00;;;;;;5073435;28;20409;-53
2023/01/21 09:28:55;;;;;;;5.97;2.97;;;6.50;1.00;;;;;;5071673;28;20039;-54
2023/01/21 09:31:22;;;;;;;4.53;2.17;;;6.60;1.00;;;;;;5073194;28;20142;-52
2023/01/21 09:34:00;;;;;;;6.00;2.00;;;6.60;1.00;;;;;;5071449;28;20429;-51
2023/01/21 09:36:29;;;;;;;6.43;3.00;;;6.70;1.00;;;;;;5072892;28;20020;-53
2023/01/21 09:38:55;;;;;;;5.07;2.97;;;6.70;1.00;;;;;;5073423;28;20429;-50
2023/01/21 09:41:37;;;;;;;3.93;2.67;;;6.80;1.00;;;;;;5072898;28;20111;-51
2023/01/21 09:44:43;;;;;;;6.50;2.47;;;6.90;1.00;;;;;;5060705;28;20025;-51
2023/01/21 09:47:38;;;;;;;;;;;6.80;1.00;;;;;;5011483;28;20061;-52
2023/01/21 09:50:21;;;;;;;7.77;3.07;;;6.80;1.00;;;;;;5055478;28;19939;-52
2023/01/21 09:52:52;;;;;;;14.37;4.07;;;6.90;1.00;;;;;;5070330;28;20424;-50
2023/01/21 09:55:34;;;;;;;7.53;3.77;;;7.00;1.00;;;;;;5071156;28;20028;-50
2023/01/21 09:58:29;;;;;;;6.30;3.47;;;7.10;1.00;;;;;;5067106;28;20029;-51
2023/01/21 10:01:25;;;;;;;4.50;3.27;;;7.10;1.00;;;;;;5072893;28;20052;-50
2023/01/21 10:04:13;;;;;;;8.10;3.90;;;7.20;1.00;;;;;;5072597;28;20104;-50
2023/01/21 10:07:00;;;;;;;6.90;3.60;;;7.30;1.00;;;;;;5072993;28;20032;-50
2023/01/21 10:09:48;;;;;;;9.27;4.17;;;7.30;1.00;;;;;;5072527;28;20056;-52
2023/01/21 10:12:44;;;;;;;11.20;4.50;;;7.40;1.00;;;;;;5063878;28;20378;-50
2023/01/21 10:15:36;;;;;;;4.17;3.40;;;7.50;1.00;;;;;;5072109;28;20044;-53
2023/01/21 10:18:25;;;;;;;6.83;4.03;;;7.70;1.00;;;;;;5072413;28;20036;-52
2023/01/21 10:20:59;;;;;;;8.23;4.07;;;7.70;1.00;;;;;;5072919;28;20411;-53
2023/01/21 10:23:46;;;;;;;7.63;4.00;;;7.70;1.00;;;;;;5071386;28;20031;-56
2023/01/21 10:26:13;;;;;;;7.90;4.17;;;7.80;1.00;;;;;;5066556;28;20047;-55
2023/01/21 10:28:49;;;;;;;8.20;4.40;;;7.80;1.00;;;;;;5070956;28;20427;-56
2023/01/21 10:31:25;;;;;;;6.87;4.40;;;7.90;1.00;;;;;;5072277;28;20036;-53
2023/01/21 10:33:51;;;;;;;9.00;5.10;;;8.00;1.00;;;;;;5071997;28;20037;-51
2023/01/21 10:36:52;;;;;;;9.90;4.60;;;8.10;1.00;;;;;;5071021;28;20343;-51
2023/01/21 10:39:38;;;;;;;9.60;4.83;;;8.10;1.00;;;;;;5071645;28;20378;-53
2023/01/21 10:42:13;;;;;;;7.33;4.17;;;8.00;1.00;;;;;;5067080;28;20028;-51
2023/01/21 10:44:51;;;;;;;7.40;4.57;;;8.10;1.00;;;;;;5063674;28;20049;-54
2023/01/21 10:47:38;;;;;;;10.57;5.10;;;8.20;1.00;;;;;;5058002;28;20087;-55
2023/01/21 10:50:44;;;;;;;9.60;4.23;;;8.10;1.00;;;;;;5071945;28;20115;-56
2023/01/21 10:53:13;;;;;;;10.57;6.00;;;8.10;1.00;;;;;;5030084;28;20029;-56
2023/01/21 10:56:07;;;;;;;10.77;4.50;;;8.30;1.00;;;;;;5029864;28;20033;-55
2023/01/21 10:58:54;;;;;;;7.10;4.72;;;8.30;1.00;;;;;;5059659;28;20040;-59
2023/01/21 11:01:26;;;;;;;11.00;4.53;;;8.20;1.00;;;;;;5072272;28;20020;-62
2023/01/21 11:03:56;;;;;;;7.40;3.73;;;8.20;1.00;;;;;;5072049;28;20068;-60
2023/01/21 11:06:24;;;;;;;8.97;4.10;;;8.20;1.00;;;;;;5072124;28;20114;-57
2023/01/21 11:09:01;;;;;;;8.97;3.80;;;8.30;1.00;;;;;;5071914;28;20034;-63
2023/01/21 11:11:45;;;;;;;8.77;4.27;;;8.40;1.00;;;;;;5069553;28;20409;-59
2023/01/21 11:14:11;;;;;;;8.17;4.27;;;8.60;1.00;;;;;;5063368;28;20112;-59
2023/01/21 11:16:46;;;;;;;6.37;3.53;;;8.70;1.00;;;;;;5072194;28;20028;-60
2023/01/21 11:19:26;;;;;;;7.15;3.50;;;8.70;1.00;;;;;;5072496;28;20033;-59
2023/01/21 11:22:15;;;;;;;5.13;2.07;;;8.80;1.00;;;;;;5072182;28;20020;-60
2023/01/21 11:24:43;;;;;;;4.03;2.63;;;8.80;1.00;;;;;;5069585;28;20573;-60
2023/01/21 11:27:32;;;;;;;6.30;3.60;;;8.80;1.00;;;;;;5079711;28;20047;-60
2023/01/21 11:29:58;;;;;;;4.93;2.67;;;8.90;1.00;;;;;;5070752;28;20382;-60
2023/01/21 11:32:26;;;;;;;1.80;1.70;;;8.90;1.00;;;;;;5072033;28;20013;-60
2023/01/21 11:35:06;;;;;;;3.37;1.70;;;8.80;1.00;;;;;;5071780;28;20417;-60
2023/01/21 11:37:33;;;;;;;3.43;1.57;;;8.80;1.00;;;;;;5070584;28;20047;-59
2023/01/21 11:40:22;;;;;;;4.00;1.80;;;8.80;1.00;;;;;;5070660;28;20021;-60
2023/01/21 11:42:50;;;;;;;2.87;1.40;;;8.80;1.00;;;;;;5072029;28;20055;-60
2023/01/21 11:45:30;;;;;;;1.03;0.93;;;8.80;1.00;;;;;;5071614;28;20449;-60
2023/01/21 11:47:58;;;;;;;2.83;1.43;;;8.80;1.00;;;;;;5072165;28;20021;-61
2023/01/21 11:50:36;;;;;;;2.93;1.27;;;8.80;1.00;;;;;;5071796;28;20029;-60
2023/01/21 11:53:16;;;;;;;3.27;1.40;;;8.80;1.00;;;;;;5071794;28;20031;-59
2023/01/21 11:55:53;;;;;;;2.50;1.20;;;8.80;1.00;;;;;;5071981;28;20044;-59
2023/01/21 11:58:39;;;;;;;1.80;1.13;;;8.90;1.00;;;;;;5073491;28;20077;-59
2023/01/21 12:01:24;;;;;;;2.70;1.10;;;8.90;1.00;;;;;;5062755;28;20032;-60
2023/01/21 12:03:52;;;;;;;;;;;8.90;1.00;;;;;;5075753;28;20052;-59
2023/01/21 12:06:22;;;;;;;1.27;1.07;;;8.90;1.00;;;;;;5060263;28;19962;-59
2023/01/21 12:08:50;;;;;;;1.30;1.00;;;8.90;1.00;;;;;;5075558;28;20021;-59
2023/01/21 12:11:21;;;;;;;1.37;0.97;;;8.90;1.00;;;;;;5075076;28;20103;-59
2023/01/21 12:14:02;;;;;;;1.40;1.27;;;9.00;1.00;;;;;;5073823;28;20020;-60
2023/01/21 12:16:36;;;;;;;2.17;1.00;;;9.00;1.00;;;;;;5075114;28;20013;-60
2023/01/21 12:19:32;;;;;;;1.60;1.40;;;9.10;1.00;;;;;;5074722;28;20134;-59
2023/01/21 12:22:16;;;;;;;1.30;0.93;;;9.20;1.00;;;;;;5075054;28;20052;-60
2023/01/21 12:25:24;;;;;;;1.37;1.10;;;9.40;1.00;;;;;;5075086;28;20032;-62
2023/01/21 12:27:55;;;;;;;2.53;1.60;;;9.60;1.00;;;;;;5021016;28;20025;-61
2023/01/21 12:30:38;;;;;;;2.90;1.70;;;9.70;1.00;;;;;;5032761;28;20198;-60
2023/01/21 12:33:15;;;;;;;0.67;0.67;;;9.70;1.00;;;;;;5059823;28;20351;-61
2023/01/21 12:35:52;;;;;;;1.60;1.27;;;9.70;1.00;;;;;;5074552;28;20629;-60
2023/01/21 12:38:29;;;;;;;1.67;0.95;;;9.80;1.00;;;;;;5074552;28;20115;-60
2023/01/21 12:41:09;;;;;;;1.40;1.10;;;9.70;1.00;;;;;;5073394;28;20032;-61
2023/01/21 12:43:38;;;;;;;2.50;1.13;;;9.70;1.00;;;;;;5074438;28;20028;-60
2023/01/21 12:46:33;;;;;;;2.10;0.77;;;9.70;1.00;;;;;;5074494;28;20389;-61
2023/01/21 12:49:06;;;;;;;;;;;9.70;1.00;;;;;;5061289;28;20013;-61
2023/01/21 12:51:45;;;;;;;4.38;1.38;;;9.60;1.00;;;;;;5074575;28;19915;-61
2023/01/21 12:54:27;;;;;;;4.53;1.30;;;9.70;1.00;;;;;;5061374;28;20025;-60
2023/01/21 12:57:00;;;;;;;1.88;1.20;;;9.70;1.00;;;;;;5074697;28;20032;-60
2023/01/21 12:59:48;;;;;;;1.58;1.15;;;9.80;1.00;;;;;;5074602;28;20032;-60
2023/01/21 13:02:22;;;;;;;4.55;0.93;;;9.80;1.00;;;;;;5074321;28;20013;-60
2023/01/21 13:05:00;;;;;;;1.05;0.65;;;9.90;1.00;;;;;;5074280;28;20059;-60
2023/01/21 13:07:47;;;;;;;1.02;0.70;;;9.70;1.00;;;;;;5074215;28;20029;-60
2023/01/21 13:10:29;;;;;;;4.93;1.63;;;9.80;1.00;;;;;;5066919;28;20097;-62
2023/01/21 13:13:10;;;;;;;2.27;1.40;;;9.80;1.00;;;;;;5072077;28;20099;-60
2023/01/21 13:15:39;;;;;;;1.10;0.60;;;9.90;1.00;;;;;;5065616;28;20414;-59
2023/01/21 13:18:14;;;;;;;1.40;1.10;;;10.00;1.00;;;;;;5073326;28;20032;-60
2023/01/21 13:20:47;;;;;;;1.52;1.08;;;9.90;1.00;;;;;;5073322;28;20111;-60
2023/01/21 13:23:34;;;;;;;1.70;0.90;;;10.00;1.00;;;;;;5073021;28;20036;-61
2023/01/21 13:26:03;;;;;;;0.50;0.50;;;10.20;1.00;;;;;;5065504;28;20041;-61
2023/01/21 13:28:41;;;;;;;1.13;0.77;;;10.10;1.00;;;;;;5058895;28;20064;-61
2023/01/21 13:31:45;;;;;;;1.58;1.15;;;10.10;1.00;;;;;;5073681;28;20111;-60
2023/01/21 13:34:32;;;;;;;2.70;1.05;;;10.30;1.00;;;;;;5071844;28;20045;-60
2023/01/21 13:37:16;;;;;;;1.45;1.05;;;10.30;1.00;;;;;;5072761;28;20021;-61